createdAt,value
2017-12-04T00:01:28.224Z,44.50
2017-12-04T00:03:55.680Z,44.50
2017-12-04T00:06:23.115Z,44.50
2017-12-04T00:08:50.558Z,44.60
2017-12-04T00:11:18.008Z,44.80
2017-12-04T00:13:46.215Z,44.80
2017-12-04T00:16:13.672Z,44.80
2017-12-04T00:18:41.112Z,45.20
2017-12-04T00:21:08.538Z,45.30
2017-12-04T00:23:36.149Z,45.50
2017-12-04T00:26:03.570Z,45.70
2017-12-04T00:28:31.787Z,45.80
2017-12-04T00:30:59.443Z,45.70
2017-12-04T00:33:26.868Z,45.70
2017-12-04T00:35:54.316Z,45.70
2017-12-04T00:38:22.527Z,45.70
2017-12-04T00:40:49.958Z,45.60
2017-12-04T00:43:17.411Z,45.90
2017-12-04T00:45:44.850Z,45.80
2017-12-04T00:48:12.294Z,46.00
2017-12-04T00:50:39.734Z,45.80
2017-12-04T00:53:07.166Z,45.90
2017-12-04T00:55:34.614Z,46.20
2017-12-04T00:58:02.053Z,46.30
2017-12-04T01:00:29.522Z,46.40
2017-12-04T01:02:57.011Z,46.80
2017-12-04T01:05:24.448Z,47.10
2017-12-04T01:07:51.890Z,47.30
2017-12-04T01:10:19.344Z,47.30
2017-12-04T01:12:46.793Z,47.30
2017-12-04T01:15:14.245Z,47.40
2017-12-04T01:17:41.674Z,47.40
2017-12-04T01:20:09.110Z,47.00
2017-12-04T01:22:36.541Z,47.00
2017-12-04T01:25:03.988Z,47.10
2017-12-04T01:27:31.434Z,47.20
2017-12-04T01:29:58.960Z,47.10
2017-12-04T01:32:26.386Z,47.30
2017-12-04T01:34:53.883Z,47.00
2017-12-04T01:37:21.326Z,46.70
2017-12-04T01:39:49.542Z,45.60
2017-12-04T01:42:16.981Z,46.00
2017-12-04T01:44:44.420Z,44.40
2017-12-04T01:47:12.638Z,44.40
2017-12-04T01:49:40.083Z,44.40
2017-12-04T01:52:07.539Z,44.20
2017-12-04T01:54:34.974Z,44.20
2017-12-04T01:57:02.419Z,44.60
2017-12-04T01:59:30.635Z,44.60
2017-12-04T02:01:58.081Z,44.60
2017-12-04T02:04:25.536Z,44.70
2017-12-04T02:06:52.990Z,44.80
2017-12-04T02:09:20.431Z,45.10
2017-12-04T02:11:47.878Z,45.10
2017-12-04T02:14:15.326Z,45.10
2017-12-04T02:16:43.546Z,45.30
2017-12-04T02:19:10.998Z,45.20
2017-12-04T02:21:38.444Z,45.30
2017-12-04T02:24:05.900Z,45.10
2017-12-04T02:26:33.330Z,45.90
2017-12-04T02:29:00.783Z,45.50
2017-12-04T02:31:28.227Z,45.90
2017-12-04T02:33:55.662Z,45.90
2017-12-04T02:36:23.097Z,45.80
2017-12-04T02:38:50.545Z,46.10
2017-12-04T02:41:17.994Z,46.00
2017-12-04T02:43:45.433Z,46.00
2017-12-04T02:46:12.877Z,45.80
2017-12-04T02:48:41.082Z,46.00
2017-12-04T02:51:08.535Z,45.90
2017-12-04T02:53:35.986Z,45.60
2017-12-04T02:56:03.430Z,45.70
2017-12-04T02:58:30.878Z,45.70
2017-12-04T03:00:58.314Z,45.90
2017-12-04T03:03:25.762Z,45.60
2017-12-04T03:05:53.210Z,45.60
2017-12-04T03:08:20.642Z,45.70
2017-12-04T03:10:48.085Z,45.70
2017-12-04T03:13:15.521Z,46.00
2017-12-04T03:15:42.988Z,45.90
2017-12-04T03:18:10.430Z,45.90
2017-12-04T03:20:37.882Z,46.00
2017-12-04T03:23:05.317Z,45.90
2017-12-04T03:25:33.552Z,45.90
2017-12-04T03:28:00.976Z,45.80
2017-12-04T03:30:28.438Z,45.60
2017-12-04T03:32:55.930Z,45.40
2017-12-04T03:35:23.370Z,45.40
2017-12-04T03:37:50.800Z,45.20
2017-12-04T03:40:18.256Z,45.20
2017-12-04T03:42:45.696Z,45.30
2017-12-04T03:45:13.146Z,45.10
2017-12-04T03:47:40.593Z,45.00
2017-12-04T03:50:08.030Z,45.10
2017-12-04T03:52:35.477Z,45.00
2017-12-04T03:55:02.926Z,45.00
2017-12-04T03:57:30.381Z,45.10
2017-12-04T03:59:57.821Z,45.00
2017-12-04T04:02:25.278Z,44.80
2017-12-04T04:04:52.726Z,44.80
2017-12-04T04:07:20.181Z,44.70
2017-12-04T04:09:47.630Z,44.70
2017-12-04T04:12:15.074Z,44.90
2017-12-04T04:14:42.513Z,45.00
2017-12-04T04:17:10.736Z,45.00
2017-12-04T04:19:38.183Z,44.90
2017-12-04T04:22:05.627Z,45.00
2017-12-04T04:24:33.058Z,45.00
2017-12-04T04:27:00.503Z,45.10
2017-12-04T04:29:27.943Z,45.20
2017-12-04T04:31:55.409Z,45.20
2017-12-04T04:34:22.851Z,45.10
2017-12-04T04:36:50.296Z,45.10
2017-12-04T04:39:17.738Z,45.30
2017-12-04T04:41:45.165Z,45.40
2017-12-04T04:44:12.621Z,45.50
2017-12-04T04:46:40.061Z,45.50
2017-12-04T04:49:08.282Z,45.60
2017-12-04T04:51:35.719Z,45.60
2017-12-04T04:54:03.166Z,45.20
2017-12-04T04:56:30.611Z,45.10
2017-12-04T04:58:58.056Z,45.00
2017-12-04T05:01:25.497Z,45.30
2017-12-04T05:03:52.938Z,45.10
2017-12-04T05:06:20.391Z,45.10
2017-12-04T05:08:47.833Z,45.20
2017-12-04T05:11:15.266Z,44.90
2017-12-04T05:13:42.743Z,45.00
2017-12-04T05:16:10.191Z,45.20
2017-12-04T05:18:37.628Z,45.30
2017-12-04T05:21:05.081Z,45.10
2017-12-04T05:23:32.514Z,45.20
2017-12-04T05:26:00.732Z,44.50
2017-12-04T05:28:28.170Z,44.50
2017-12-04T05:30:55.615Z,44.20
2017-12-04T05:33:23.073Z,44.00
2017-12-04T05:35:50.532Z,43.90
2017-12-04T05:38:17.969Z,43.70
2017-12-04T05:40:45.409Z,43.30
2017-12-04T05:43:12.853Z,43.00
2017-12-04T05:45:40.302Z,42.90
2017-12-04T05:48:07.739Z,42.80
2017-12-04T05:50:35.183Z,42.90
2017-12-04T05:53:02.606Z,42.80
2017-12-04T05:55:30.049Z,42.70
2017-12-04T05:57:58.262Z,43.20
2017-12-04T06:00:25.729Z,43.10
2017-12-04T06:02:53.162Z,43.00
2017-12-04T06:05:20.593Z,42.90
2017-12-04T06:07:48.851Z,42.80
2017-12-04T06:10:16.280Z,42.70
2017-12-04T06:12:43.754Z,43.00
2017-12-04T06:15:11.189Z,43.10
2017-12-04T06:17:38.638Z,43.20
2017-12-04T06:20:06.838Z,43.10
2017-12-04T06:22:34.283Z,43.10
2017-12-04T06:25:01.736Z,44.10
2017-12-04T06:27:29.182Z,43.60
2017-12-04T06:29:56.615Z,43.80
2017-12-04T06:32:24.067Z,43.80
2017-12-04T06:34:51.592Z,44.00
2017-12-04T06:37:19.037Z,44.00
2017-12-04T06:39:46.471Z,44.00
2017-12-04T06:42:13.978Z,44.20
2017-12-04T06:44:41.426Z,44.20
2017-12-04T06:47:08.869Z,44.60
2017-12-04T06:49:36.322Z,44.60
2017-12-04T06:52:03.769Z,44.70
2017-12-04T06:54:31.217Z,44.80
2017-12-04T06:56:58.670Z,44.60
2017-12-04T06:59:26.110Z,44.40
2017-12-04T07:01:53.551Z,44.40
2017-12-04T07:04:21.003Z,44.60
2017-12-04T07:06:48.434Z,44.60
2017-12-04T07:09:15.873Z,44.70
2017-12-04T07:11:43.311Z,44.60
2017-12-04T07:14:10.758Z,44.70
2017-12-04T07:16:38.186Z,44.80
2017-12-04T07:19:05.624Z,44.70
2017-12-04T07:21:33.055Z,44.70
2017-12-04T07:24:00.510Z,44.70
2017-12-04T07:26:27.977Z,44.70
2017-12-04T07:28:55.424Z,44.80
2017-12-04T07:31:22.855Z,44.80
2017-12-04T07:33:50.295Z,44.50
2017-12-04T07:36:17.734Z,44.40
2017-12-04T07:38:45.191Z,44.50
2017-12-04T07:41:12.647Z,44.70
2017-12-04T07:43:40.093Z,44.80
2017-12-04T07:46:07.529Z,44.80
2017-12-04T07:48:35.750Z,44.90
2017-12-04T07:51:04.061Z,44.80
2017-12-04T07:53:31.499Z,44.80
2017-12-04T07:55:58.951Z,44.70
2017-12-04T07:58:26.382Z,44.20
2017-12-04T08:00:53.832Z,44.40
2017-12-04T08:03:21.265Z,44.40
2017-12-04T08:05:48.731Z,44.20
2017-12-04T08:08:16.176Z,44.00
2017-12-04T08:10:43.624Z,43.90
2017-12-04T08:13:11.827Z,44.00
2017-12-04T08:15:39.322Z,44.00
2017-12-04T08:18:06.764Z,44.00
2017-12-04T08:20:34.223Z,43.60
2017-12-04T08:23:01.685Z,43.50
2017-12-04T08:25:29.138Z,43.50
2017-12-04T08:27:56.573Z,43.60
2017-12-04T08:30:24.029Z,43.60
2017-12-04T08:32:51.471Z,43.70
2017-12-04T08:35:18.913Z,43.60
2017-12-04T08:37:46.346Z,43.50
2017-12-04T08:40:13.783Z,43.40
2017-12-04T08:42:41.221Z,43.20
2017-12-04T08:45:08.676Z,43.00
2017-12-04T08:47:36.110Z,42.90
2017-12-04T08:50:03.554Z,42.90
2017-12-04T08:52:31.007Z,42.90
2017-12-04T08:54:58.449Z,42.80
2017-12-04T08:57:26.675Z,42.20
2017-12-04T08:59:54.094Z,42.10
2017-12-04T09:02:21.533Z,41.90
2017-12-04T09:04:48.971Z,42.10
2017-12-04T09:07:16.413Z,42.10
2017-12-04T09:09:43.857Z,41.90
2017-12-04T09:12:11.310Z,42.10
2017-12-04T09:14:38.726Z,41.80
2017-12-04T09:17:06.161Z,41.90
2017-12-04T09:19:34.363Z,42.00
2017-12-04T09:22:01.801Z,41.90
2017-12-04T09:24:29.226Z,42.00
2017-12-04T09:26:56.677Z,42.00
2017-12-04T09:29:24.113Z,41.90
2017-12-04T09:31:51.582Z,42.20
2017-12-04T09:34:19.011Z,42.20
2017-12-04T09:36:46.439Z,42.10
2017-12-04T09:39:13.884Z,41.90
2017-12-04T09:41:42.087Z,42.00
2017-12-04T09:44:09.532Z,42.00
2017-12-04T09:46:36.969Z,41.40
2017-12-04T09:49:04.406Z,41.20
2017-12-04T09:51:31.833Z,41.50
2017-12-04T09:53:59.294Z,41.60
2017-12-04T09:56:26.745Z,41.80
2017-12-04T09:58:54.184Z,41.60
2017-12-04T10:01:21.625Z,41.50
2017-12-04T10:03:49.066Z,41.40
2017-12-04T10:06:16.489Z,41.50
2017-12-04T10:08:43.954Z,41.50
2017-12-04T10:11:12.162Z,41.40
2017-12-04T10:13:39.600Z,41.40
2017-12-04T10:16:07.039Z,41.40
2017-12-04T10:18:34.468Z,41.40
2017-12-04T10:21:01.918Z,41.40
2017-12-04T10:23:29.355Z,41.60
2017-12-04T10:25:56.793Z,42.00
2017-12-04T10:28:24.226Z,42.30
2017-12-04T10:30:52.432Z,42.60
2017-12-04T10:33:19.870Z,42.60
2017-12-04T10:35:47.319Z,42.60
2017-12-04T10:38:14.760Z,43.00
2017-12-04T10:40:42.202Z,43.20
2017-12-04T10:43:09.647Z,43.00
2017-12-04T10:45:37.094Z,42.80
2017-12-04T10:48:04.530Z,42.90
2017-12-04T10:50:31.989Z,42.50
2017-12-04T10:52:59.409Z,41.70
2017-12-04T10:55:27.633Z,41.80
2017-12-04T10:57:55.076Z,41.80
2017-12-04T11:00:22.537Z,41.90
2017-12-04T11:05:23.806Z,41.30
2017-12-04T11:07:51.241Z,42.00
2017-12-04T11:10:18.678Z,41.10
2017-12-04T11:12:46.130Z,40.50
2017-12-04T11:15:13.562Z,39.60
2017-12-04T11:17:41.775Z,40.80
2017-12-04T11:20:09.209Z,40.00
2017-12-04T11:22:36.666Z,40.20
2017-12-04T11:25:04.101Z,40.40
2017-12-04T11:27:31.552Z,40.30
2017-12-04T11:29:58.986Z,39.50
2017-12-04T11:32:26.437Z,39.80
2017-12-04T11:34:53.879Z,40.40
2017-12-04T11:37:21.314Z,40.40
2017-12-04T11:39:48.788Z,40.30
2017-12-04T11:42:16.202Z,40.50
2017-12-04T11:44:44.409Z,40.50
2017-12-04T11:47:11.843Z,40.50
2017-12-04T11:49:39.298Z,40.60
2017-12-04T11:52:07.509Z,40.50
2017-12-04T11:54:34.947Z,40.50
2017-12-04T11:57:02.365Z,40.30
2017-12-04T11:59:29.827Z,40.50
2017-12-04T12:01:57.275Z,40.40
2017-12-04T12:04:24.720Z,40.50
2017-12-04T12:06:52.154Z,39.80
2017-12-04T12:09:19.582Z,39.70
2017-12-04T12:11:47.025Z,39.20
2017-12-04T12:14:14.471Z,39.40
2017-12-04T12:16:42.686Z,39.60
2017-12-04T12:19:10.120Z,39.60
2017-12-04T12:21:37.562Z,39.70
2017-12-04T12:24:05.010Z,39.30
2017-12-04T12:26:33.223Z,39.90
2017-12-04T12:29:00.981Z,39.90
2017-12-04T12:31:28.409Z,40.40
2017-12-04T12:33:55.854Z,40.40
2017-12-04T12:36:24.067Z,42.00
2017-12-04T12:38:51.511Z,42.00
2017-12-04T12:41:18.981Z,41.30
2017-12-04T12:43:46.423Z,40.50
2017-12-04T12:46:13.861Z,40.30
2017-12-04T12:48:41.293Z,38.50
2017-12-04T12:51:08.734Z,38.50
2017-12-04T12:53:36.187Z,39.10
2017-12-04T13:39:43.289Z,39.40
2017-12-04T13:42:10.745Z,42.60
2017-12-04T13:44:38.180Z,42.50
2017-12-04T13:47:05.624Z,42.90
2017-12-04T13:49:33.070Z,42.60
2017-12-04T13:52:00.519Z,42.40
2017-12-04T13:54:27.958Z,42.50
2017-12-04T13:56:55.407Z,41.90
2017-12-04T13:59:22.840Z,41.90
2017-12-04T14:01:50.288Z,41.90
2017-12-04T14:04:17.733Z,41.80
2017-12-04T14:06:45.931Z,41.80
2017-12-04T14:09:13.371Z,41.80
2017-12-04T14:11:41.033Z,41.80
2017-12-04T14:14:08.489Z,41.90
2017-12-04T14:16:35.919Z,41.80
2017-12-04T14:19:03.362Z,41.80
2017-12-04T14:21:30.794Z,41.80
2017-12-04T14:23:58.251Z,41.80
2017-12-04T14:26:25.686Z,41.80
2017-12-04T14:28:53.136Z,41.90
2017-12-04T14:31:20.557Z,42.00
2017-12-04T14:33:48.020Z,41.80
2017-12-04T14:36:15.449Z,41.80
2017-12-04T14:38:42.896Z,41.80
2017-12-04T14:41:10.322Z,41.80
2017-12-04T14:43:37.763Z,41.80
2017-12-04T14:46:05.211Z,41.80
2017-12-04T14:48:32.647Z,41.80
2017-12-04T14:51:00.096Z,42.00
2017-12-04T14:53:27.540Z,42.30
2017-12-04T14:55:54.977Z,42.20
2017-12-04T14:58:22.428Z,42.40
2017-12-04T15:00:49.891Z,42.20
2017-12-04T15:03:17.329Z,42.40
2017-12-04T15:05:44.778Z,42.40
2017-12-04T15:08:12.214Z,42.30
2017-12-04T15:10:39.649Z,41.90
2017-12-04T15:13:07.092Z,42.10
2017-12-04T15:15:34.543Z,42.50
2017-12-04T15:18:01.990Z,42.50
2017-12-04T15:20:29.438Z,42.50
2017-12-04T15:22:57.106Z,42.00
2017-12-04T15:25:24.547Z,41.90
2017-12-04T15:27:51.993Z,41.90
2017-12-04T15:30:19.437Z,41.90
2017-12-04T15:32:46.875Z,41.90
2017-12-04T15:35:14.314Z,41.90
2017-12-04T15:37:41.759Z,41.90
2017-12-04T15:40:09.256Z,41.60
2017-12-04T15:42:36.669Z,41.80
2017-12-04T15:45:04.109Z,41.90
2017-12-04T15:47:31.565Z,42.00
2017-12-04T15:49:58.989Z,42.00
2017-12-04T15:52:26.429Z,42.00
2017-12-04T15:54:53.864Z,42.00
2017-12-04T15:57:21.309Z,42.00
2017-12-04T15:59:48.776Z,41.90
2017-12-04T16:02:16.238Z,42.00
2017-12-04T16:04:43.679Z,42.00
2017-12-04T16:07:11.125Z,41.70
2017-12-04T16:09:38.567Z,41.90
2017-12-04T16:12:06.042Z,42.00
2017-12-04T16:14:33.461Z,42.00
2017-12-04T16:17:09.403Z,42.00
2017-12-04T16:19:36.928Z,42.00
2017-12-04T16:22:04.367Z,42.00
2017-12-04T16:24:31.816Z,41.90
2017-12-04T16:26:59.272Z,42.00
2017-12-04T16:29:26.713Z,42.00
2017-12-04T16:31:54.163Z,42.20
2017-12-04T16:34:21.610Z,41.90
2017-12-04T16:36:49.056Z,42.40
2017-12-04T16:39:16.515Z,42.80
2017-12-04T16:41:43.958Z,43.10
2017-12-04T16:44:11.526Z,43.30
2017-12-04T16:46:38.895Z,44.20
2017-12-04T16:49:06.551Z,43.60
2017-12-04T16:51:33.981Z,43.70
2017-12-04T16:54:02.202Z,43.80
2017-12-04T16:56:29.629Z,43.80
2017-12-04T16:58:57.067Z,44.00
2017-12-04T17:01:24.526Z,44.00
2017-12-04T17:03:52.013Z,44.10
2017-12-04T17:06:19.470Z,44.00
2017-12-04T17:08:46.917Z,44.00
2017-12-04T17:11:14.357Z,44.40
2017-12-04T17:13:41.884Z,44.40
2017-12-04T17:16:09.334Z,44.20
2017-12-04T17:18:36.780Z,44.20
2017-12-04T17:21:04.221Z,43.90
2017-12-04T17:23:31.665Z,43.90
2017-12-04T17:25:59.133Z,44.10
2017-12-04T17:28:26.788Z,44.00
2017-12-04T17:30:54.252Z,43.80
2017-12-04T17:33:21.715Z,43.70
2017-12-04T17:35:49.176Z,43.90
2017-12-04T17:38:16.605Z,43.90
2017-12-04T17:40:44.074Z,43.90
2017-12-04T17:43:11.508Z,44.60
2017-12-04T17:45:38.949Z,44.20
2017-12-04T17:48:06.398Z,44.00
2017-12-04T17:50:33.843Z,44.10
2017-12-04T17:53:02.049Z,43.90
2017-12-04T17:55:29.491Z,43.80
2017-12-04T17:57:56.961Z,44.00
2017-12-04T18:00:24.403Z,44.10
2017-12-04T18:02:51.843Z,44.30
2017-12-04T18:05:19.287Z,44.10
2017-12-04T18:07:47.502Z,43.70
2017-12-04T18:10:14.928Z,43.70
2017-12-04T18:12:42.379Z,43.50
2017-12-04T18:15:09.823Z,43.30
2017-12-04T18:17:37.271Z,42.90
2017-12-04T18:20:04.759Z,43.20
2017-12-04T18:22:32.191Z,43.30
2017-12-04T18:24:59.634Z,43.60
2017-12-04T18:27:27.105Z,43.80
2017-12-04T18:29:54.552Z,44.00
2017-12-04T18:32:21.999Z,44.00
2017-12-04T18:34:49.466Z,44.20
2017-12-04T18:37:16.906Z,44.10
2017-12-04T18:39:44.368Z,44.20
2017-12-04T18:42:11.843Z,44.20
2017-12-04T18:44:40.060Z,44.30
2017-12-04T18:47:07.506Z,44.20
2017-12-04T18:49:34.979Z,44.40
2017-12-04T18:52:02.414Z,44.10
2017-12-04T18:54:29.861Z,44.10
2017-12-04T18:56:57.303Z,44.00
2017-12-04T18:59:25.523Z,44.00
2017-12-04T19:01:52.953Z,43.90
2017-12-04T19:04:20.401Z,44.00
2017-12-04T19:06:47.878Z,44.20
2017-12-04T19:09:15.367Z,43.90
2017-12-04T19:11:42.821Z,43.90
2017-12-04T19:14:10.272Z,44.10
2017-12-04T19:16:37.713Z,44.00
2017-12-04T19:19:05.198Z,43.90
2017-12-04T19:21:32.645Z,43.70
2017-12-04T19:24:00.126Z,43.80
2017-12-04T19:26:27.596Z,43.90
2017-12-04T19:28:55.062Z,43.90
2017-12-04T19:31:22.552Z,43.70
2017-12-04T19:33:49.997Z,43.70
2017-12-04T19:36:17.438Z,43.70
2017-12-04T19:38:44.877Z,43.70
2017-12-04T19:41:12.327Z,43.70
2017-12-04T19:43:39.770Z,43.90
2017-12-04T19:46:07.222Z,43.80
2017-12-04T19:48:34.661Z,43.90
2017-12-04T19:51:02.130Z,43.90
2017-12-04T19:53:29.570Z,43.60
2017-12-04T19:55:57.069Z,43.60
2017-12-04T19:58:24.471Z,43.60
2017-12-04T20:00:55.599Z,43.50
2017-12-04T20:03:23.056Z,43.40
2017-12-04T20:05:50.489Z,43.50
2017-12-04T20:08:17.938Z,43.50
2017-12-04T20:10:45.378Z,43.50
2017-12-04T20:13:12.894Z,44.30
2017-12-04T20:15:40.346Z,43.80
2017-12-04T20:18:07.807Z,44.00
2017-12-04T20:20:35.240Z,44.20
2017-12-04T20:23:02.705Z,44.20
2017-12-04T20:25:30.129Z,44.20
2017-12-04T20:27:57.578Z,44.50
2017-12-04T20:30:25.029Z,44.80
2017-12-04T20:32:52.513Z,44.60
2017-12-04T20:35:20.033Z,44.50
2017-12-04T20:37:47.478Z,44.50
2017-12-04T20:40:14.978Z,45.40
2017-12-04T20:42:42.370Z,45.10
2017-12-04T20:45:09.820Z,45.10
2017-12-04T20:47:37.268Z,45.00
2017-12-04T20:50:04.724Z,44.80
2017-12-04T20:52:32.165Z,44.90
2017-12-04T20:54:59.617Z,45.10
2017-12-04T20:57:27.058Z,45.50
2017-12-04T20:59:54.579Z,46.00
2017-12-04T21:02:22.017Z,46.00
2017-12-04T21:04:49.510Z,46.00
2017-12-04T21:07:16.953Z,46.00
2017-12-04T21:09:56.222Z,46.00
2017-12-04T21:12:24.435Z,46.00
2017-12-04T21:15:03.690Z,45.90
2017-12-04T21:17:34.651Z,45.70
2017-12-04T21:20:02.876Z,46.00
2017-12-04T21:22:30.314Z,46.20
2017-12-04T21:24:57.761Z,46.30
2017-12-04T21:27:25.225Z,46.40
2017-12-04T21:29:52.669Z,46.20
2017-12-04T21:32:20.113Z,46.00
2017-12-04T21:34:47.558Z,46.00
2017-12-04T21:37:15.012Z,46.00
2017-12-04T21:39:42.450Z,46.10
2017-12-04T21:42:09.961Z,46.00
2017-12-04T21:44:37.615Z,46.10
2017-12-04T21:47:05.045Z,46.00
2017-12-04T21:49:32.500Z,45.90
2017-12-04T21:51:59.981Z,46.50
2017-12-04T21:54:27.394Z,46.60
2017-12-04T21:56:54.855Z,46.60
2017-12-04T21:59:22.293Z,46.60
2017-12-04T22:01:49.737Z,46.60
2017-12-04T22:04:17.193Z,46.50
2017-12-04T22:06:44.645Z,46.20
2017-12-04T22:09:12.089Z,46.00
2017-12-04T22:11:39.533Z,46.10
2017-12-04T22:14:06.969Z,46.40
2017-12-04T22:16:35.180Z,46.70
2017-12-04T22:19:02.631Z,46.60
2017-12-04T22:21:30.078Z,46.90
2017-12-04T22:23:57.527Z,46.90
2017-12-04T22:26:24.971Z,46.80
2017-12-04T22:28:52.429Z,47.00
2017-12-04T22:31:19.863Z,47.00
2017-12-04T22:33:47.305Z,47.00
2017-12-04T22:36:14.743Z,46.90
2017-12-04T22:38:42.201Z,46.80
2017-12-04T22:41:09.648Z,46.60
2017-12-04T22:43:37.103Z,46.00
2017-12-04T22:46:04.540Z,45.90
2017-12-04T22:48:32.001Z,45.90
2017-12-04T22:51:00.194Z,46.00
2017-12-04T22:53:27.636Z,46.00
2017-12-04T22:55:55.099Z,46.10
2017-12-04T22:58:22.541Z,46.20
2017-12-04T23:00:49.997Z,46.40
2017-12-04T23:03:17.446Z,46.30
2017-12-04T23:05:44.899Z,46.20
2017-12-04T23:08:12.342Z,46.40
2017-12-04T23:10:39.797Z,46.40
2017-12-04T23:13:07.243Z,46.50
2017-12-04T23:15:34.746Z,47.20
2017-12-04T23:18:02.184Z,46.70
2017-12-04T23:20:29.640Z,46.50
2017-12-04T23:22:57.076Z,46.40
2017-12-04T23:25:24.539Z,46.30
2017-12-04T23:27:52.001Z,46.00
2017-12-04T23:30:19.453Z,46.10
2017-12-04T23:32:47.661Z,45.80
2017-12-04T23:35:15.125Z,45.70
2017-12-04T23:37:42.569Z,45.50
2017-12-04T23:40:10.051Z,45.50
2017-12-04T23:42:37.503Z,45.40
2017-12-04T23:45:04.951Z,45.30
2017-12-04T23:47:32.402Z,45.30
2017-12-04T23:49:59.844Z,45.50
2017-12-04T23:52:27.301Z,45.50
2017-12-04T23:54:54.742Z,45.70
2017-12-04T23:57:22.199Z,45.60
2017-12-04T23:59:49.631Z,45.70
